TAF Text Data
IDs:
Format:
Raw Decoded Include METAR

Data at: 0848 UTC 01 Aug 2021

KANB 010537Z 0106/0206 VRB03KT P6SM FEW050 SCT200
  PROB30 0116/0120 4SM TSRA BR BKN023CB
  FM012000 32007KT 6SM SHRA BR VCTS SCT022CB BKN060
  FM020200 VRB04KT P6SM SCT040 BKN080
  PROB30 0202/0205 4SM TSRA BR BKN040CB